createdAt,value
2019-05-20T00:00:27.586Z,13.17
2019-05-20T00:01:27.607Z,13.14
2019-05-20T00:02:28.531Z,13.22
2019-05-20T00:03:27.532Z,13.19
2019-05-20T00:04:27.572Z,13.28
2019-05-20T00:05:27.609Z,13.22
2019-05-20T00:06:27.514Z,13.23
2019-05-20T00:07:27.490Z,13.30
2019-05-20T00:08:27.472Z,13.25
2019-05-20T00:09:27.465Z,13.20
2019-05-20T00:10:27.489Z,13.20
2019-05-20T00:11:27.459Z,13.20
2019-05-20T00:12:27.451Z,13.23
2019-05-20T00:13:27.415Z,13.15
2019-05-20T00:14:27.406Z,13.17
2019-05-20T00:15:27.428Z,13.17
2019-05-20T00:16:27.395Z,13.19
2019-05-20T00:17:27.427Z,13.20
2019-05-20T00:18:27.398Z,13.15
2019-05-20T00:19:27.347Z,13.19
2019-05-20T00:20:27.344Z,13.12
2019-05-20T00:21:27.351Z,13.08
2019-05-20T00:22:27.326Z,13.14
2019-05-20T00:23:27.324Z,13.10
2019-05-20T00:24:27.322Z,13.07
2019-05-20T00:25:27.281Z,13.04
2019-05-20T00:26:27.271Z,13.00
2019-05-20T00:27:27.275Z,13.00
2019-05-20T00:28:27.267Z,13.12
2019-05-20T00:29:27.264Z,13.10
2019-05-20T00:30:27.229Z,12.97
2019-05-20T00:31:27.267Z,13.10
2019-05-20T00:32:40.169Z,13.05
2019-05-20T00:33:27.206Z,12.96
2019-05-20T00:34:35.343Z,13.04
2019-05-20T00:35:28.163Z,12.95
2019-05-20T00:36:27.152Z,13.04
2019-05-20T00:37:27.170Z,13.00
2019-05-20T00:38:27.130Z,13.11
2019-05-20T00:39:27.134Z,13.12
2019-05-20T00:40:27.135Z,13.04
2019-05-20T00:41:27.126Z,13.12
2019-05-20T00:42:27.137Z,13.15
2019-05-20T00:43:27.103Z,13.11
2019-05-20T00:44:27.075Z,13.15
2019-05-20T00:45:27.081Z,13.12
2019-05-20T00:46:27.076Z,13.14
2019-05-20T00:47:27.038Z,13.10
2019-05-20T00:48:27.030Z,13.04
2019-05-20T00:49:27.006Z,13.05
2019-05-20T00:50:27.009Z,13.01
2019-05-20T00:51:27.013Z,13.03
2019-05-20T00:52:27.014Z,13.05
2019-05-20T00:53:26.997Z,13.05
2019-05-20T00:54:26.964Z,13.01
2019-05-20T00:55:26.935Z,13.10
2019-05-20T00:56:26.938Z,13.03
2019-05-20T00:57:26.938Z,13.08
2019-05-20T00:58:26.905Z,13.12
2019-05-20T00:59:26.901Z,13.17
2019-05-20T01:00:26.882Z,13.10
2019-05-20T01:01:26.872Z,13.11
2019-05-20T01:02:26.864Z,13.07
2019-05-20T01:03:26.873Z,13.10
2019-05-20T01:04:26.835Z,13.11
2019-05-20T01:05:26.830Z,13.07
2019-05-20T01:06:26.814Z,13.07
2019-05-20T01:07:26.801Z,12.97
2019-05-20T01:08:26.809Z,13.12
2019-05-20T01:09:26.796Z,13.08
2019-05-20T01:10:26.803Z,13.10
2019-05-20T01:11:26.774Z,13.11
2019-05-20T01:12:26.745Z,13.08
2019-05-20T01:13:26.766Z,13.12
2019-05-20T01:14:26.774Z,13.14
2019-05-20T01:15:26.744Z,13.07
2019-05-20T01:16:26.707Z,13.10
2019-05-20T01:17:26.689Z,13.08
2019-05-20T01:18:26.695Z,13.03
2019-05-20T01:19:26.690Z,13.10
2019-05-20T01:20:26.672Z,13.11
2019-05-20T01:21:26.643Z,13.05
2019-05-20T01:22:26.628Z,13.00
2019-05-20T01:23:26.625Z,13.03
2019-05-20T01:24:26.634Z,13.05
2019-05-20T01:25:26.606Z,13.03
2019-05-20T01:26:26.620Z,13.00
2019-05-20T01:27:26.607Z,13.08
2019-05-20T01:28:27.780Z,13.10
2019-05-20T01:29:26.557Z,13.04
2019-05-20T01:30:26.564Z,13.12
2019-05-20T01:31:26.559Z,13.01
2019-05-20T01:32:26.549Z,13.05
2019-05-20T01:33:26.517Z,12.95
2019-05-20T01:34:26.506Z,13.00
2019-05-20T01:35:26.490Z,13.04
2019-05-20T01:36:26.494Z,12.96
2019-05-20T01:37:26.495Z,12.92
2019-05-20T01:38:26.486Z,12.92
2019-05-20T01:39:26.448Z,12.95
2019-05-20T01:40:26.427Z,12.89
2019-05-20T01:41:26.423Z,12.92
2019-05-20T01:42:26.436Z,12.90
2019-05-20T01:43:26.418Z,12.89
2019-05-20T01:44:26.404Z,12.93
2019-05-20T01:45:26.369Z,12.87
2019-05-20T01:46:26.361Z,12.92
2019-05-20T01:47:26.354Z,13.00
2019-05-20T01:48:26.356Z,12.93
2019-05-20T01:49:26.360Z,12.93
2019-05-20T01:50:26.318Z,13.00
2019-05-20T01:51:26.301Z,12.93
2019-05-20T01:52:26.313Z,12.97
2019-05-20T01:53:26.342Z,12.97
2019-05-20T01:54:26.313Z,12.97
2019-05-20T01:55:26.275Z,12.93
2019-05-20T01:56:26.384Z,12.96
2019-05-20T01:57:26.240Z,12.95
2019-05-20T01:58:26.223Z,12.93
2019-05-20T01:59:26.233Z,12.93
2019-05-20T02:00:26.217Z,12.87
2019-05-20T02:01:26.233Z,12.92
2019-05-20T02:02:26.219Z,12.90
2019-05-20T02:03:31.570Z,12.93
2019-05-20T02:04:27.168Z,12.97
2019-05-20T02:05:26.159Z,12.87
2019-05-20T02:06:26.153Z,12.89
2019-05-20T02:07:26.128Z,12.93
2019-05-20T02:08:26.120Z,12.87
2019-05-20T02:09:26.107Z,12.90
2019-05-20T02:10:26.134Z,12.93
2019-05-20T02:11:26.097Z,12.87
2019-05-20T02:12:26.089Z,12.96
2019-05-20T02:13:26.057Z,12.92
2019-05-20T02:14:26.054Z,12.97
2019-05-20T02:15:26.034Z,12.93
2019-05-20T02:16:26.057Z,12.92
2019-05-20T02:17:26.024Z,12.86
2019-05-20T02:18:26.024Z,12.95
2019-05-20T02:19:26.003Z,12.90
2019-05-20T02:20:25.980Z,12.89
2019-05-20T02:21:25.972Z,12.90
2019-05-20T02:22:25.981Z,12.96
2019-05-20T02:23:25.960Z,12.93
2019-05-20T02:24:25.962Z,12.92
2019-05-20T02:25:25.921Z,12.89
2019-05-20T02:26:25.939Z,12.92
2019-05-20T02:27:25.903Z,12.90
2019-05-20T02:28:25.901Z,12.87
2019-05-20T02:29:25.892Z,12.87
2019-05-20T02:30:25.861Z,12.86
2019-05-20T02:31:25.855Z,12.87
2019-05-20T02:32:25.845Z,12.83
2019-05-20T02:33:25.832Z,12.90
2019-05-20T02:34:25.840Z,12.89
2019-05-20T02:35:25.826Z,12.86
2019-05-20T02:36:25.800Z,12.86
2019-05-20T02:37:25.788Z,12.87
2019-05-20T02:38:25.774Z,12.87
2019-05-20T02:39:26.834Z,12.87
2019-05-20T02:40:25.764Z,12.87
2019-05-20T02:41:25.768Z,12.89
2019-05-20T02:42:25.781Z,12.85
2019-05-20T02:43:25.717Z,12.85
2019-05-20T02:44:25.713Z,12.68
2019-05-20T02:45:25.705Z,12.74
2019-05-20T02:46:25.701Z,12.72
2019-05-20T02:47:25.715Z,12.75
2019-05-20T02:48:25.666Z,12.75
2019-05-20T02:49:25.646Z,12.74
2019-05-20T02:50:25.646Z,12.74
2019-05-20T02:51:25.629Z,12.74
2019-05-20T02:52:25.630Z,12.64
2019-05-20T02:53:25.632Z,12.67
2019-05-20T02:54:25.600Z,12.67
2019-05-20T02:55:25.577Z,12.67
2019-05-20T02:56:25.571Z,12.59
2019-05-20T02:57:25.566Z,12.67
2019-05-20T02:58:25.615Z,12.62
2019-05-20T02:59:25.553Z,12.64
2019-05-20T03:00:25.531Z,12.67
2019-05-20T03:01:25.513Z,12.67
2019-05-20T03:02:25.526Z,12.64
2019-05-20T03:03:25.505Z,12.59
2019-05-20T03:04:25.499Z,12.56
2019-05-20T03:05:25.463Z,12.52
2019-05-20T03:06:25.454Z,12.52
2019-05-20T03:07:25.443Z,12.54
2019-05-20T03:08:25.452Z,12.62
2019-05-20T03:09:25.505Z,12.56
2019-05-20T03:10:25.448Z,12.57
2019-05-20T03:11:25.393Z,12.57
2019-05-20T03:12:25.403Z,12.60
2019-05-20T03:13:25.373Z,12.54
2019-05-20T03:14:25.395Z,12.54
2019-05-20T03:15:25.386Z,12.54
2019-05-20T03:16:25.387Z,12.47
2019-05-20T03:17:25.333Z,12.53
2019-05-20T03:18:25.317Z,12.54
2019-05-20T03:19:25.394Z,12.50
2019-05-20T03:20:25.329Z,12.45
2019-05-20T03:21:25.307Z,12.49
2019-05-20T03:22:25.276Z,12.46
2019-05-20T03:23:25.264Z,12.42
2019-05-20T03:24:25.243Z,12.37
2019-05-20T03:25:25.282Z,12.47
2019-05-20T03:26:25.236Z,12.45
2019-05-20T03:27:25.214Z,12.39
2019-05-20T03:28:25.206Z,12.39
2019-05-20T03:29:25.197Z,12.38
2019-05-20T03:30:25.214Z,12.41
2019-05-20T03:31:25.184Z,12.32
2019-05-20T03:32:25.176Z,12.35
2019-05-20T03:33:25.182Z,12.28
2019-05-20T03:34:45.140Z,12.34
2019-05-20T03:35:26.182Z,12.34
2019-05-20T03:36:25.129Z,12.34
2019-05-20T03:37:25.107Z,12.39
2019-05-20T03:38:25.114Z,12.39
2019-05-20T03:39:25.085Z,12.39
2019-05-20T03:40:25.072Z,12.41
2019-05-20T03:41:25.064Z,12.32
2019-05-20T03:42:25.057Z,12.39
2019-05-20T03:43:25.056Z,12.35
2019-05-20T03:44:25.066Z,12.35
2019-05-20T03:45:25.011Z,12.38
2019-05-20T03:46:25.022Z,12.31
2019-05-20T03:47:24.985Z,12.35
2019-05-20T03:48:24.991Z,12.27
2019-05-20T03:49:24.999Z,12.35
2019-05-20T03:50:24.950Z,12.31
2019-05-20T03:51:25.037Z,12.29
2019-05-20T03:52:24.925Z,12.21
2019-05-20T03:53:24.920Z,12.32
2019-05-20T03:54:24.936Z,12.29
2019-05-20T03:55:24.913Z,12.32
2019-05-20T03:56:24.882Z,12.29
2019-05-20T03:57:24.915Z,12.28
2019-05-20T03:58:24.864Z,12.32
2019-05-20T03:59:24.855Z,12.24
2019-05-20T04:00:24.897Z,12.28
2019-05-20T04:01:24.852Z,12.29
2019-05-20T04:02:24.852Z,12.29
2019-05-20T04:03:24.832Z,12.24
2019-05-20T04:04:25.327Z,12.29
2019-05-20T04:05:24.806Z,12.32
2019-05-20T04:06:24.817Z,12.32
2019-05-20T04:07:24.798Z,12.29
2019-05-20T04:08:24.752Z,12.31
2019-05-20T04:09:24.745Z,12.35
2019-05-20T04:10:24.724Z,12.23
2019-05-20T04:11:24.771Z,12.24
2019-05-20T04:12:24.724Z,12.21
2019-05-20T04:13:24.715Z,12.32
2019-05-20T04:14:24.701Z,12.27
2019-05-20T04:15:24.705Z,12.31
2019-05-20T04:16:24.668Z,12.27
2019-05-20T04:17:24.655Z,12.34
2019-05-20T04:18:24.658Z,12.31
2019-05-20T04:19:24.630Z,12.29
2019-05-20T04:20:24.622Z,12.28
2019-05-20T04:21:24.614Z,12.32
2019-05-20T04:22:24.602Z,12.23
2019-05-20T04:23:24.595Z,12.32
2019-05-20T04:24:24.645Z,12.32
2019-05-20T04:25:24.553Z,12.29
2019-05-20T04:26:24.539Z,12.32
2019-05-20T04:27:24.561Z,12.27
2019-05-20T04:28:24.540Z,12.28
2019-05-20T04:29:24.550Z,12.29
2019-05-20T04:30:24.522Z,12.37
2019-05-20T04:31:24.497Z,12.37
2019-05-20T04:32:24.473Z,12.35
2019-05-20T04:33:25.183Z,12.39
2019-05-20T04:34:24.489Z,12.35
2019-05-20T04:35:24.493Z,12.41
2019-05-20T04:36:24.466Z,12.41
2019-05-20T04:37:24.420Z,12.50
2019-05-20T04:38:24.408Z,12.47
2019-05-20T04:39:24.452Z,12.34
2019-05-20T04:40:24.393Z,12.47
2019-05-20T04:41:24.393Z,12.46
2019-05-20T04:42:24.405Z,12.49
2019-05-20T04:43:24.372Z,12.49
2019-05-20T04:44:24.358Z,12.46
2019-05-20T04:45:24.359Z,12.41
2019-05-20T04:46:24.336Z,12.52
2019-05-20T04:47:24.342Z,12.45
2019-05-20T04:48:24.340Z,12.53
2019-05-20T04:49:24.281Z,12.56
2019-05-20T04:50:24.295Z,12.57
2019-05-20T04:51:24.332Z,12.56
2019-05-20T04:52:24.275Z,12.54
2019-05-20T04:53:24.266Z,12.62
2019-05-20T04:54:24.270Z,12.56
2019-05-20T04:55:24.227Z,12.68
2019-05-20T04:56:24.202Z,12.60
2019-05-20T04:57:24.217Z,12.56
2019-05-20T04:58:24.198Z,12.64
2019-05-20T04:59:24.169Z,12.62
2019-05-20T05:00:24.180Z,12.65
2019-05-20T05:01:24.154Z,12.65
2019-05-20T05:02:24.141Z,12.67
2019-05-20T05:03:24.136Z,12.67
2019-05-20T05:04:24.144Z,12.65
2019-05-20T05:05:36.868Z,12.68
2019-05-20T05:06:24.113Z,12.70
2019-05-20T05:07:24.089Z,12.74
2019-05-20T05:08:24.081Z,12.77
2019-05-20T05:09:24.070Z,12.71
2019-05-20T05:10:24.080Z,12.83
2019-05-20T05:11:24.074Z,12.79
2019-05-20T05:12:24.033Z,12.83
2019-05-20T05:13:24.017Z,12.87
2019-05-20T05:14:24.011Z,12.82
2019-05-20T05:15:24.002Z,12.90
2019-05-20T05:16:24.020Z,12.93
2019-05-20T05:17:24.031Z,12.87
2019-05-20T05:18:23.961Z,12.87
2019-05-20T05:19:23.946Z,12.96
2019-05-20T05:20:23.961Z,12.95
2019-05-20T05:21:23.944Z,13.00
2019-05-20T05:22:23.945Z,12.93
2019-05-20T05:23:23.908Z,13.01
2019-05-20T05:24:23.906Z,12.97
2019-05-20T05:25:23.898Z,13.11
2019-05-20T05:26:23.881Z,13.08
2019-05-20T05:27:23.880Z,13.17
2019-05-20T05:28:23.841Z,13.08
2019-05-20T05:29:23.830Z,13.12
2019-05-20T05:30:23.819Z,13.11
2019-05-20T05:31:23.827Z,13.20
2019-05-20T05:32:23.840Z,13.15
2019-05-20T05:33:23.817Z,13.26
2019-05-20T05:34:23.778Z,13.25
2019-05-20T05:35:23.761Z,13.19
2019-05-20T05:36:23.753Z,13.29
2019-05-20T05:37:23.782Z,13.29
2019-05-20T05:38:23.770Z,13.30
2019-05-20T05:39:23.743Z,13.28
2019-05-20T05:40:23.714Z,13.33
2019-05-20T05:41:23.732Z,13.39
2019-05-20T05:42:23.694Z,13.39
2019-05-20T05:43:23.693Z,13.42
2019-05-20T05:44:23.696Z,13.41
2019-05-20T05:45:23.649Z,13.45
2019-05-20T05:46:23.654Z,13.44
2019-05-20T05:47:23.634Z,13.39
2019-05-20T05:48:23.641Z,13.45
2019-05-20T05:49:23.622Z,13.44
2019-05-20T05:50:23.612Z,13.44
2019-05-20T05:51:23.585Z,13.49
2019-05-20T05:52:23.571Z,13.52
2019-05-20T05:53:23.606Z,13.44
2019-05-20T05:54:23.590Z,13.48
2019-05-20T05:55:23.551Z,13.48
2019-05-20T05:56:23.546Z,13.48
2019-05-20T05:57:23.513Z,13.52
2019-05-20T05:58:23.510Z,13.55
2019-05-20T05:59:23.489Z,13.52
2019-05-20T06:00:23.513Z,13.59
2019-05-20T06:01:23.486Z,13.54
2019-05-20T06:02:23.454Z,13.52
2019-05-20T06:03:23.537Z,13.55
2019-05-20T06:04:23.439Z,13.55
2019-05-20T06:05:23.429Z,13.57
2019-05-20T06:06:23.418Z,13.52
2019-05-20T06:07:23.421Z,13.57
2019-05-20T06:08:23.460Z,13.57
2019-05-20T06:09:24.185Z,13.52
2019-05-20T06:10:23.368Z,13.64
2019-05-20T06:11:23.370Z,13.54
2019-05-20T06:12:23.391Z,13.64
2019-05-20T06:13:23.359Z,13.62
2019-05-20T06:14:23.335Z,13.64
2019-05-20T06:15:23.316Z,13.62
2019-05-20T06:16:36.125Z,13.64
2019-05-20T06:17:23.302Z,13.64
2019-05-20T06:18:23.312Z,13.63
2019-05-20T06:19:23.308Z,13.60
2019-05-20T06:20:23.255Z,13.70
2019-05-20T06:21:23.252Z,13.75
2019-05-20T06:22:23.239Z,13.71
2019-05-20T06:23:23.276Z,13.75
2019-05-20T06:24:23.223Z,13.77
2019-05-20T06:25:23.249Z,13.82
2019-05-20T06:26:23.290Z,13.77
2019-05-20T06:27:23.207Z,13.81
2019-05-20T06:28:23.175Z,13.81
2019-05-20T06:29:23.186Z,13.85
2019-05-20T06:30:23.161Z,13.82
2019-05-20T06:31:23.237Z,13.77
2019-05-20T06:32:23.119Z,13.79
2019-05-20T06:33:23.128Z,13.91
2019-05-20T06:34:23.113Z,13.89
2019-05-20T06:35:23.161Z,13.91
2019-05-20T06:36:26.861Z,14.03
2019-05-20T06:37:23.074Z,14.14
2019-05-20T06:38:23.049Z,14.14
2019-05-20T06:39:23.036Z,14.15
2019-05-20T06:40:23.062Z,14.22
2019-05-20T06:41:23.048Z,14.15
2019-05-20T06:42:23.024Z,14.18
2019-05-20T06:43:23.035Z,14.20
2019-05-20T06:44:22.980Z,14.17
2019-05-20T06:45:22.969Z,14.17
2019-05-20T06:46:23.005Z,14.12
2019-05-20T06:47:22.964Z,14.18
2019-05-20T06:48:22.933Z,14.18
2019-05-20T06:49:22.940Z,14.27
2019-05-20T06:50:22.909Z,14.36
2019-05-20T06:51:22.952Z,14.36
2019-05-20T06:52:35.289Z,14.29
2019-05-20T06:53:23.878Z,14.37
2019-05-20T06:54:22.861Z,14.37
2019-05-20T06:55:22.876Z,14.42
2019-05-20T06:56:22.848Z,14.46
2019-05-20T06:57:23.997Z,14.50
2019-05-20T06:58:22.830Z,14.46
2019-05-20T06:59:22.840Z,14.50
2019-05-20T07:00:22.802Z,14.46
2019-05-20T07:01:22.795Z,14.52
2019-05-20T07:02:22.777Z,14.51
2019-05-20T07:03:22.792Z,14.58
2019-05-20T07:04:22.781Z,14.50
2019-05-20T07:05:22.764Z,14.51
2019-05-20T07:06:22.782Z,14.54
2019-05-20T07:07:22.740Z,14.58
2019-05-20T07:08:22.732Z,14.57
2019-05-20T07:09:22.737Z,14.64
2019-05-20T07:10:22.800Z,14.57
2019-05-20T07:11:22.728Z,14.58
2019-05-20T07:12:22.708Z,14.65
2019-05-20T07:13:22.665Z,14.65
2019-05-20T07:14:22.654Z,14.65
2019-05-20T07:15:22.667Z,14.65
2019-05-20T07:16:22.642Z,14.61
2019-05-20T07:17:22.613Z,14.60
2019-05-20T07:18:22.616Z,14.52
2019-05-20T07:19:22.586Z,14.62
2019-05-20T07:20:22.640Z,14.60
2019-05-20T07:21:22.591Z,14.65
2019-05-20T07:22:22.579Z,14.65
2019-05-20T07:23:22.550Z,14.61
2019-05-20T07:24:22.545Z,14.62
2019-05-20T07:25:22.591Z,14.55
2019-05-20T07:26:22.543Z,14.55
2019-05-20T07:27:22.514Z,14.52
2019-05-20T07:28:22.481Z,14.55
2019-05-20T07:29:22.470Z,14.60
2019-05-20T07:30:22.464Z,14.57
2019-05-20T07:31:22.468Z,14.55
2019-05-20T07:32:22.464Z,14.62
2019-05-20T07:33:22.445Z,14.54
2019-05-20T07:34:22.444Z,14.57
2019-05-20T07:35:30.487Z,14.55
2019-05-20T07:36:23.416Z,14.55
2019-05-20T07:37:22.430Z,14.50
2019-05-20T07:38:22.378Z,14.50
2019-05-20T07:39:22.374Z,14.58
2019-05-20T07:40:22.390Z,14.55
2019-05-20T07:41:22.346Z,14.55
2019-05-20T07:42:22.328Z,14.50
2019-05-20T07:43:22.325Z,14.52
2019-05-20T07:44:22.311Z,14.50
2019-05-20T07:45:22.306Z,14.50
2019-05-20T07:46:22.280Z,14.55
2019-05-20T07:47:22.259Z,14.55
2019-05-20T07:48:22.274Z,14.50
2019-05-20T07:49:22.270Z,14.51
2019-05-20T07:50:22.241Z,14.54
2019-05-20T07:51:22.243Z,14.58
2019-05-20T07:52:22.208Z,14.55
2019-05-20T07:53:22.192Z,14.46
2019-05-20T07:54:22.190Z,14.54
2019-05-20T07:55:22.191Z,14.52
2019-05-20T07:56:22.195Z,14.46
2019-05-20T07:57:22.160Z,14.45
2019-05-20T07:58:22.147Z,14.60
2019-05-20T07:59:22.127Z,14.52
2019-05-20T08:00:22.183Z,14.52
2019-05-20T08:01:22.143Z,14.55
2019-05-20T08:02:22.115Z,14.60
2019-05-20T08:03:22.092Z,14.54
2019-05-20T08:04:22.110Z,14.55
2019-05-20T08:05:22.069Z,14.50
2019-05-20T08:06:22.078Z,14.54
2019-05-20T08:07:29.754Z,14.55
2019-05-20T08:08:22.042Z,14.58
2019-05-20T08:09:22.084Z,14.50
2019-05-20T08:10:22.007Z,14.50
2019-05-20T08:11:21.996Z,14.50
2019-05-20T08:12:21.994Z,14.51
2019-05-20T08:13:21.988Z,14.37
2019-05-20T08:14:21.966Z,14.45
2019-05-20T08:15:21.950Z,14.45
2019-05-20T08:16:21.931Z,14.45
2019-05-20T08:17:21.937Z,14.47
2019-05-20T08:18:22.749Z,14.40
2019-05-20T08:19:21.972Z,14.43
2019-05-20T08:20:21.887Z,14.40
2019-05-20T08:21:21.870Z,14.47
2019-05-20T08:22:21.888Z,14.42
2019-05-20T08:23:21.864Z,14.35
2019-05-20T08:24:21.856Z,14.29
2019-05-20T08:25:21.870Z,14.37
2019-05-20T08:26:21.840Z,14.32
2019-05-20T08:27:21.808Z,14.32
2019-05-20T08:28:21.797Z,14.35
2019-05-20T08:29:21.790Z,14.33
2019-05-20T08:30:21.785Z,14.39
2019-05-20T08:31:21.832Z,14.39
2019-05-20T08:32:21.806Z,14.40
2019-05-20T08:33:21.746Z,14.46
2019-05-20T08:34:21.740Z,14.42
2019-05-20T08:35:23.702Z,14.43
2019-05-20T08:36:21.723Z,14.46
2019-05-20T08:37:21.701Z,14.54
2019-05-20T08:38:21.682Z,14.43
2019-05-20T08:39:21.672Z,14.42
2019-05-20T08:40:21.677Z,14.43
2019-05-20T08:41:21.733Z,14.52
2019-05-20T08:42:21.658Z,14.43
2019-05-20T08:43:21.629Z,14.45
2019-05-20T08:44:21.664Z,14.43
2019-05-20T08:45:21.634Z,14.51
2019-05-20T08:46:21.597Z,14.51
2019-05-20T08:47:21.615Z,14.55
2019-05-20T08:48:21.569Z,14.51
2019-05-20T08:49:21.571Z,14.55
2019-05-20T08:50:21.571Z,14.47
2019-05-20T08:51:21.537Z,14.51
2019-05-20T08:52:21.547Z,14.57
2019-05-20T08:53:21.561Z,14.54
2019-05-20T08:54:21.518Z,14.60
2019-05-20T08:55:21.500Z,14.61
2019-05-20T08:56:21.509Z,14.50
2019-05-20T08:57:21.491Z,14.46
2019-05-20T08:58:21.522Z,14.54
2019-05-20T08:59:21.458Z,14.45
2019-05-20T09:00:23.599Z,14.57
2019-05-20T09:01:21.430Z,14.65
2019-05-20T09:02:21.421Z,14.75
2019-05-20T09:03:21.412Z,14.75
2019-05-20T09:04:21.407Z,14.75
2019-05-20T09:05:21.376Z,14.81
2019-05-20T09:06:21.377Z,14.86
2019-05-20T09:07:21.363Z,14.96
2019-05-20T09:08:21.349Z,14.96
2019-05-20T09:09:21.393Z,14.91
2019-05-20T09:10:21.355Z,15.03
2019-05-20T09:11:21.420Z,14.96
2019-05-20T09:12:21.303Z,14.98
2019-05-20T09:13:21.279Z,15.03
2019-05-20T09:14:21.284Z,15.01
2019-05-20T09:15:21.278Z,15.07
2019-05-20T09:16:21.304Z,15.09
2019-05-20T09:17:21.750Z,15.27
2019-05-20T09:18:21.228Z,15.17
2019-05-20T09:19:21.212Z,15.27
2019-05-20T09:20:21.265Z,15.14
2019-05-20T09:21:21.199Z,15.14
2019-05-20T09:22:21.179Z,15.13
2019-05-20T09:23:21.174Z,15.29
2019-05-20T09:24:21.149Z,15.27
2019-05-20T09:25:21.155Z,15.29
2019-05-20T09:26:21.233Z,15.29
2019-05-20T09:27:21.195Z,15.27
2019-05-20T09:28:21.125Z,15.16
2019-05-20T09:29:21.135Z,15.23
2019-05-20T09:30:21.100Z,15.16
2019-05-20T09:31:21.090Z,15.16
2019-05-20T09:32:21.100Z,15.17
2019-05-20T09:33:21.081Z,15.14
2019-05-20T09:34:21.048Z,15.19
2019-05-20T09:35:21.042Z,15.13
2019-05-20T09:36:21.026Z,15.29
2019-05-20T09:37:21.031Z,15.16
2019-05-20T09:38:21.557Z,15.25
2019-05-20T09:39:20.984Z,15.17
2019-05-20T09:40:20.975Z,15.28
2019-05-20T09:41:21.028Z,15.29
2019-05-20T09:42:20.963Z,15.28
2019-05-20T09:43:20.973Z,15.31
2019-05-20T09:44:20.963Z,15.25
2019-05-20T09:45:20.943Z,15.35
2019-05-20T09:46:20.903Z,15.36
2019-05-20T09:47:20.888Z,15.34
2019-05-20T09:48:24.870Z,15.36
2019-05-20T09:49:20.882Z,15.32
2019-05-20T09:50:20.887Z,15.28
2019-05-20T09:51:20.875Z,15.36
2019-05-20T09:52:20.835Z,15.36
2019-05-20T09:53:20.861Z,15.39
2019-05-20T09:54:20.837Z,15.35
2019-05-20T09:55:20.821Z,15.46
2019-05-20T09:56:20.823Z,15.39
2019-05-20T09:57:20.779Z,15.44
2019-05-20T09:58:20.773Z,15.35
2019-05-20T09:59:20.760Z,15.44
2019-05-20T10:00:20.766Z,15.38
2019-05-20T10:01:20.743Z,15.44
2019-05-20T10:02:20.862Z,15.36
2019-05-20T10:03:20.724Z,15.47
2019-05-20T10:04:20.703Z,15.50
2019-05-20T10:05:20.694Z,15.49
2019-05-20T10:06:20.700Z,15.44
2019-05-20T10:07:20.719Z,15.47
2019-05-20T10:08:36.278Z,15.46
2019-05-20T10:09:21.642Z,15.46
2019-05-20T10:10:20.631Z,15.47
2019-05-20T10:11:20.636Z,15.46
2019-05-20T10:12:20.644Z,15.49
2019-05-20T10:13:20.627Z,15.47
2019-05-20T10:14:20.596Z,15.54
2019-05-20T10:15:20.583Z,15.53
2019-05-20T10:16:20.573Z,15.50
2019-05-20T10:17:20.569Z,15.49
2019-05-20T10:18:35.983Z,15.56
2019-05-20T10:19:20.551Z,15.54
2019-05-20T10:20:20.528Z,15.60
2019-05-20T10:21:20.503Z,15.65
2019-05-20T10:22:20.523Z,15.64
2019-05-20T10:23:20.525Z,15.68
2019-05-20T10:24:20.485Z,15.75
2019-05-20T10:25:20.494Z,15.89
2019-05-20T10:26:20.447Z,15.83
2019-05-20T10:27:20.448Z,15.92
2019-05-20T10:28:20.435Z,15.90
2019-05-20T10:29:20.428Z,16.02
2019-05-20T10:30:20.417Z,15.93
2019-05-20T10:31:20.392Z,16.04
2019-05-20T10:32:20.395Z,16.04
2019-05-20T10:33:20.392Z,16.05
2019-05-20T10:34:20.386Z,16.04
2019-05-20T10:35:20.359Z,16.08
2019-05-20T10:36:20.357Z,16.12
2019-05-20T10:37:20.336Z,16.20
2019-05-20T10:38:20.315Z,16.28
2019-05-20T10:39:20.299Z,16.31
2019-05-20T10:40:20.325Z,16.28
2019-05-20T10:41:20.290Z,16.27
2019-05-20T10:42:20.314Z,16.28
2019-05-20T10:43:20.267Z,16.30
2019-05-20T10:44:20.250Z,16.35
2019-05-20T10:45:20.234Z,16.39
2019-05-20T10:46:20.239Z,16.41
2019-05-20T10:47:20.235Z,16.52
2019-05-20T10:48:20.235Z,16.35
2019-05-20T10:49:20.190Z,16.49
2019-05-20T10:50:20.182Z,16.46
2019-05-20T10:51:20.182Z,16.39
2019-05-20T10:52:20.165Z,16.43
2019-05-20T10:53:20.187Z,16.50
2019-05-20T10:54:20.136Z,16.49
2019-05-20T10:55:20.137Z,16.46
2019-05-20T10:56:20.120Z,16.43
2019-05-20T10:57:20.127Z,16.53
2019-05-20T10:58:20.123Z,16.50
2019-05-20T10:59:20.113Z,16.41
2019-05-20T11:00:20.068Z,16.52
2019-05-20T11:01:20.053Z,16.50
2019-05-20T11:02:20.048Z,16.49
2019-05-20T11:03:20.059Z,16.42
2019-05-20T11:04:20.077Z,16.49
2019-05-20T11:05:20.017Z,16.50
2019-05-20T11:06:20.004Z,16.45
2019-05-20T11:07:19.990Z,16.49
2019-05-20T11:08:19.969Z,16.53
2019-05-20T11:09:20.001Z,16.48
2019-05-20T11:10:19.971Z,16.48
2019-05-20T11:11:19.939Z,16.50
2019-05-20T11:12:19.993Z,16.53
2019-05-20T11:13:19.912Z,16.58
2019-05-20T11:14:21.183Z,16.56
2019-05-20T11:15:19.911Z,16.58
2019-05-20T11:16:19.906Z,16.66
2019-05-20T11:17:19.880Z,16.57
2019-05-20T11:18:19.864Z,16.64
2019-05-20T11:19:19.854Z,16.61
2019-05-20T11:20:20.303Z,16.64
2019-05-20T11:21:19.844Z,16.63
2019-05-20T11:22:19.841Z,16.70
2019-05-20T11:23:19.847Z,16.71
2019-05-20T11:24:19.791Z,16.75
2019-05-20T11:25:19.791Z,16.76
2019-05-20T11:26:19.788Z,16.79
2019-05-20T11:27:19.783Z,16.79
2019-05-20T11:28:19.749Z,16.79
2019-05-20T11:29:19.743Z,16.78
2019-05-20T11:30:19.750Z,16.73
2019-05-20T11:31:19.744Z,16.79
2019-05-20T11:32:19.725Z,16.76
2019-05-20T11:33:19.707Z,16.81
2019-05-20T11:34:19.735Z,16.76
2019-05-20T11:35:19.669Z,16.82
2019-05-20T11:36:19.669Z,16.83
2019-05-20T11:37:19.658Z,16.82
2019-05-20T11:38:19.644Z,16.78
2019-05-20T11:39:32.729Z,16.85
2019-05-20T11:40:19.654Z,16.82
2019-05-20T11:41:19.626Z,16.82
2019-05-20T11:42:19.594Z,16.81
2019-05-20T11:43:19.591Z,16.82
2019-05-20T11:44:19.580Z,16.79
2019-05-20T11:45:19.579Z,16.81
2019-05-20T11:46:19.580Z,16.89
2019-05-20T11:47:19.535Z,16.91
2019-05-20T11:48:19.523Z,16.91
2019-05-20T11:49:19.519Z,17.01
2019-05-20T11:50:19.519Z,17.00
2019-05-20T11:51:19.530Z,17.01
2019-05-20T11:52:19.485Z,17.03
2019-05-20T11:53:19.487Z,17.14
2019-05-20T11:54:19.456Z,17.06
2019-05-20T11:55:19.455Z,17.12
2019-05-20T11:56:19.455Z,17.11
2019-05-20T11:57:19.458Z,17.00
2019-05-20T11:58:20.269Z,17.12
2019-05-20T11:59:19.453Z,17.07
2019-05-20T12:00:19.392Z,17.03
2019-05-20T12:01:19.407Z,16.86
2019-05-20T12:02:19.421Z,16.79
2019-05-20T12:03:19.360Z,16.81
2019-05-20T12:04:19.349Z,16.75
2019-05-20T12:05:19.359Z,16.66
2019-05-20T12:06:19.326Z,16.58
2019-05-20T12:07:19.341Z,16.63
2019-05-20T12:08:19.324Z,16.43
2019-05-20T12:09:19.289Z,16.50
2019-05-20T12:10:19.296Z,16.46
2019-05-20T12:11:19.264Z,16.39
2019-05-20T12:12:19.271Z,16.39
2019-05-20T12:13:19.266Z,16.30
2019-05-20T12:14:19.254Z,16.41
2019-05-20T12:15:19.232Z,16.42
2019-05-20T12:16:19.215Z,16.31
2019-05-20T12:17:19.197Z,16.05
2019-05-20T12:18:19.210Z,15.68
2019-05-20T12:19:19.193Z,15.43
2019-05-20T12:20:19.204Z,15.11
2019-05-20T12:21:19.152Z,14.75
2019-05-20T12:22:19.149Z,14.15
2019-05-20T12:23:19.226Z,13.67
2019-05-20T12:24:19.224Z,13.25
2019-05-20T12:25:19.792Z,12.92
2019-05-20T12:26:22.606Z,12.72
2019-05-20T12:27:19.125Z,12.56
2019-05-20T12:28:19.089Z,12.47
2019-05-20T12:29:19.085Z,12.32
2019-05-20T12:30:19.103Z,12.28
2019-05-20T12:31:19.088Z,12.19
2019-05-20T12:32:19.023Z,12.14
2019-05-20T12:33:19.828Z,12.12
2019-05-20T12:34:19.804Z,12.12
2019-05-20T12:35:20.025Z,12.16
2019-05-20T12:36:19.005Z,12.09
2019-05-20T12:37:19.006Z,12.14
2019-05-20T12:38:19.029Z,12.12
2019-05-20T12:39:18.990Z,12.20
2019-05-20T12:40:18.953Z,12.31
2019-05-20T12:41:18.942Z,12.23
2019-05-20T12:42:18.921Z,12.31
2019-05-20T12:43:18.955Z,12.29
2019-05-20T12:44:18.937Z,12.32
2019-05-20T12:45:18.885Z,12.37
2019-05-20T12:46:18.872Z,12.35
2019-05-20T12:47:18.882Z,12.24
2019-05-20T12:48:18.871Z,12.31
2019-05-20T12:49:18.962Z,12.24
2019-05-20T12:50:18.826Z,12.42
2019-05-20T12:51:18.809Z,12.41
2019-05-20T12:52:18.815Z,12.29